WABB

Frans Kaisiepo Airport

Biak-Supiori Island, Indonesia
TAF WABB 162300Z 1700/1806 17004KT 9999 SCT018 TEMPO 1700/1704 5000 RA FEW017CB BECMG 1710/1712 00000KT
Issued Valid From Valid To
Jul-16 @ 23:00 UTC
(an hour ago)
Jul-17 @ 00:00 UTC
(26 minutes ago)
Jul-18 @ 06:00 UTC
(-1 days ago)
Jul-17 @ 00:00 to Jul-17 @ 10:00
TAF WABB 162300Z 1700/1806 17004KT 9999 SCT018
Wind Visibility Clouds
170° at 4 knots 10,000+ meters
  • Scattered at 1,800' AGL
Temporary Jul-17 @ 00:00 to Jul-17 @ 04:00
TEMPO 1700/1704 5000 RA FEW017CB
Visibility Clouds Conditions
5,005 meters
  • Few at 1,700' AGL
  • Rain
Becoming Jul-17 @ 10:00 to Jul-18 @ 06:00
BECMG 1710/1712 00000KT
Visibility Clouds
10,000+ meters
  • Scattered at 1,800' AGL
TAF WABB 162300Z 1700/1806 17004KT 9999 SCT018 TEMPO 1700/1704 5000 RA FEW017CB BECMG 1710/1712 00000KT
Issued Jul-16 @ 23:00 UTC
(an hour ago)
Valid From Jul-17 @ 00:00 UTC
(26 minutes ago)
Valid To Jul-18 @ 06:00 UTC
(-1 days ago)
Jul-17 @ 00:00 - Jul-17 @ 10:00
Wind Visibility
170° at 4 knots 10,000+ meters
Clouds
  • Scattered at 1,800' AGL
Temporary Jul-17 @ 00:00 - Jul-17 @ 04:00
Clouds
  • Few at 1,700' AGL
Conditions
  • Rain
Becoming Jul-17 @ 10:00 - Jul-18 @ 06:00
Clouds
  • Scattered at 1,800' AGL